El Prat de Llobregat, Spain
Current Conditions -  °F | °C
As of 1:00 AM on Tuesday 21 Oct 2014 (Local Time) from LEBL Reporting Station
Few Clouds Few Clouds  
Wind Chill: 68°   Ceiling: Unl
Heat Index: 68°   Visibility: 6mi
Dew Point: 57°   Wind: 7mph
Humidity: 68%   Direction: 270°W
Pressure: 30.09"   Gusts: NA
Location:  41.33°N, 2.09°E
Report Text: LEBL 202300Z 27006KT 9999 FEW010 20/14 Q1019 NOSIG
Loading
Personal Weather Stations






























Interactive Weather Map
Tropical Storm Tracking
New forecast layout! Learn more

10-Day Weather Forecast

Advertisements
Track Severe Weather on mobile